Time;durP1;ratioP1;P1;durP2;ratioP2;P2;SDS_P1;SDS_P2;PMS_P1;PMS_P2;Temp;Humidity;BMP_temperature;BMP_pressure;BME280_temperature;BME280_humidity;BME280_pressure;Samples;Min_cycle;Max_cycle;Signal;HPM_P1;HPM_P2
2023/11/21 00:00:15;;;;;;;55.70;33.85;;;6.00;99.90;;;;;;5037673;28;20138;-74
2023/11/21 00:02:45;;;;;;;48.60;32.05;;;5.90;99.90;;;;;;5026699;28;20037;-74
2023/11/21 00:05:14;;;;;;;61.67;34.10;;;6.00;99.90;;;;;;5034645;28;20029;-76
2023/11/21 00:07:42;;;;;;;59.88;32.80;;;6.00;99.90;;;;;;5015777;28;20050;-74
2023/11/21 00:10:10;;;;;;;59.65;32.97;;;5.80;99.90;;;;;;5020880;28;20036;-74
2023/11/21 00:12:38;;;;;;;54.83;31.13;;;5.80;99.90;;;;;;5030493;28;20489;-74
2023/11/21 00:15:09;;;;;;;47.30;30.92;;;5.80;99.90;;;;;;5038050;28;20049;-74
2023/11/21 00:17:37;;;;;;;49.17;31.75;;;5.30;99.90;;;;;;5032980;28;20034;-74
2023/11/21 00:20:06;;;;;;;49.00;30.27;;;5.40;99.90;;;;;;5032693;28;20378;-76
2023/11/21 00:22:36;;;;;;;53.97;30.92;;;5.50;99.90;;;;;;5037955;28;20060;-74
2023/11/21 00:25:04;;;;;;;45.60;28.60;;;5.50;99.90;;;;;;5009728;28;20050;-74
2023/11/21 00:27:31;;;;;;;45.55;28.50;;;5.70;99.90;;;;;;5034971;28;20120;-72
2023/11/21 00:29:59;;;;;;;42.30;26.98;;;5.70;99.90;;;;;;5033247;28;20030;-74
2023/11/21 00:32:26;;;;;;;45.28;27.00;;;5.70;99.90;;;;;;5036007;28;20048;-74
2023/11/21 00:34:54;;;;;;;46.75;27.00;;;5.60;99.90;;;;;;5013459;28;20790;-72
2023/11/21 00:37:21;;;;;;;46.42;26.42;;;5.70;99.90;;;;;;5041670;28;20443;-72
2023/11/21 00:39:49;;;;;;;45.95;28.75;;;5.70;99.90;;;;;;5029513;28;20041;-74
2023/11/21 00:42:16;;;;;;;42.63;26.95;;;5.70;99.90;;;;;;5011958;28;20121;-74
2023/11/21 00:44:43;;;;;;;45.88;27.48;;;5.50;99.90;;;;;;5036618;28;20096;-73
2023/11/21 00:47:11;;;;;;;37.65;24.55;;;5.40;99.90;;;;;;5036768;28;20409;-74
2023/11/21 00:49:39;;;;;;;41.92;24.15;;;5.50;99.90;;;;;;5038151;28;20041;-76
2023/11/21 00:52:07;;;;;;;35.22;22.98;;;5.70;99.90;;;;;;5039749;28;20796;-72
2023/11/21 00:54:34;;;;;;;38.70;25.60;;;5.70;99.90;;;;;;5039357;28;20112;-73
2023/11/21 00:57:01;;;;;;;41.85;25.08;;;5.80;99.90;;;;;;5042002;28;20488;-71
2023/11/21 00:59:28;;;;;;;32.22;22.42;;;5.70;99.90;;;;;;5039685;28;20041;-74
2023/11/21 01:01:56;;;;;;;41.60;24.38;;;5.50;99.90;;;;;;5041150;28;20055;-76
2023/11/21 01:04:23;;;;;;;37.65;23.42;;;5.30;99.90;;;;;;5036684;28;20475;-72
2023/11/21 01:06:51;;;;;;;35.45;22.95;;;5.40;99.90;;;;;;5038583;28;20037;-70
2023/11/21 01:09:18;;;;;;;35.88;23.67;;;5.40;99.90;;;;;;5038913;28;20026;-74
2023/11/21 01:11:46;;;;;;;35.33;22.55;;;5.30;99.90;;;;;;5036321;28;20128;-72
2023/11/21 01:14:13;;;;;;;41.85;26.55;;;5.40;99.90;;;;;;5037827;28;20045;-74
2023/11/21 01:16:41;;;;;;;45.90;26.92;;;5.50;99.90;;;;;;5019671;28;20037;-74
2023/11/21 01:19:09;;;;;;;42.97;26.30;;;5.40;99.90;;;;;;5039363;28;20038;-72
2023/11/21 01:21:36;;;;;;;43.28;27.45;;;5.50;99.90;;;;;;5025886;28;20091;-71
2023/11/21 01:24:07;;;;;;;44.45;28.23;;;5.60;99.90;;;;;;5038929;28;20401;-74
2023/11/21 01:26:34;;;;;;;40.38;27.30;;;5.70;99.90;;;;;;5029692;28;20053;-74
2023/11/21 01:29:01;;;;;;;44.03;26.02;;;5.70;99.90;;;;;;5014164;28;20128;-72
2023/11/21 01:31:29;;;;;;;39.25;25.10;;;5.90;99.90;;;;;;5017793;28;20037;-73
2023/11/21 01:33:57;;;;;;;43.95;24.13;;;5.90;99.90;;;;;;5035441;28;20041;-73
2023/11/21 01:36:32;;;;;;;39.05;24.20;;;5.80;99.90;;;;;;5013297;28;20134;-72
2023/11/21 01:39:00;;;;;;;39.17;24.67;;;5.60;99.90;;;;;;5029540;28;20041;-72
2023/11/21 01:41:28;;;;;;;40.90;27.00;;;5.50;99.90;;;;;;5038450;28;20029;-74
2023/11/21 01:43:56;;;;;;;38.15;25.55;;;5.30;99.90;;;;;;5038424;28;20072;-73
2023/11/21 01:46:24;;;;;;;45.22;28.67;;;5.50;99.90;;;;;;5042132;28;20716;-73
2023/11/21 01:48:53;;;;;;;51.20;30.15;;;5.40;99.90;;;;;;5015197;28;20515;-72
2023/11/21 01:51:20;;;;;;;50.00;31.58;;;5.50;99.90;;;;;;5039388;28;20029;-74
2023/11/21 01:53:47;;;;;;;47.25;32.28;;;5.60;99.90;;;;;;5009151;28;20097;-74
2023/11/21 01:56:15;;;;;;;51.38;32.97;;;5.60;99.90;;;;;;5031182;28;20068;-73
2023/11/21 01:58:43;;;;;;;49.35;31.70;;;5.70;99.90;;;;;;5038166;28;20115;-75
2023/11/21 02:01:10;;;;;;;55.42;31.88;;;5.90;99.90;;;;;;5030960;28;20041;-74
2023/11/21 02:03:38;;;;;;;57.70;35.28;;;6.00;99.90;;;;;;5037443;28;20091;-74
2023/11/21 02:06:06;;;;;;;51.20;33.78;;;6.00;99.90;;;;;;5037207;28;20120;-71
2023/11/21 02:08:33;;;;;;;50.75;32.80;;;5.70;99.90;;;;;;5039743;28;20069;-73
2023/11/21 02:11:02;;;;;;;50.20;33.17;;;5.50;99.90;;;;;;5019506;28;20034;-73
2023/11/21 02:13:29;;;;;;;47.65;30.55;;;5.60;99.90;;;;;;5011112;28;20120;-71
2023/11/21 02:15:57;;;;;;;49.45;30.67;;;5.70;99.90;;;;;;5037666;28;20435;-72
2023/11/21 02:18:24;;;;;;;44.20;28.88;;;5.80;99.90;;;;;;5027388;28;20361;-71
2023/11/21 02:20:52;;;;;;;48.13;30.33;;;5.80;99.90;;;;;;5036005;28;20087;-73
2023/11/21 02:23:19;;;;;;;45.00;28.95;;;5.80;99.90;;;;;;5034627;28;20469;-73
2023/11/21 02:25:47;;;;;;;41.15;28.10;;;5.80;99.90;;;;;;5032250;28;20041;-73
2023/11/21 02:28:16;;;;;;;46.60;27.50;;;5.70;99.90;;;;;;5031765;28;20116;-75
2023/11/21 02:30:43;;;;;;;39.92;25.20;;;5.70;99.90;;;;;;5033002;28;20048;-75
2023/11/21 02:33:12;;;;;;;34.85;24.13;;;5.50;99.90;;;;;;5028655;28;20037;-72
2023/11/21 02:35:39;;;;;;;41.42;23.13;;;5.30;99.90;;;;;;4997586;28;20049;-75
2023/11/21 02:38:07;;;;;;;38.75;24.67;;;5.40;99.90;;;;;;5030473;28;20558;-73
2023/11/21 02:40:34;;;;;;;38.60;23.55;;;5.30;99.90;;;;;;5035041;28;20370;-74
2023/11/21 02:43:01;;;;;;;36.00;23.13;;;5.40;99.90;;;;;;5032120;28;20068;-73
2023/11/21 02:45:29;;;;;;;29.63;20.35;;;5.60;99.90;;;;;;5031297;28;20071;-75
2023/11/21 02:47:56;;;;;;;30.40;19.73;;;5.60;99.90;;;;;;5033764;28;20076;-73
2023/11/21 02:50:25;;;;;;;34.88;21.52;;;5.30;99.90;;;;;;5035512;28;20412;-72
2023/11/21 02:52:52;;;;;;;31.42;20.73;;;5.30;99.90;;;;;;5031668;28;20033;-74
2023/11/21 02:55:20;;;;;;;30.92;19.90;;;5.30;99.90;;;;;;5040188;28;20049;-74
2023/11/21 02:57:47;;;;;;;31.65;20.27;;;5.40;99.90;;;;;;5034863;28;20037;-72
2023/11/21 03:00:15;;;;;;;29.65;19.80;;;5.40;99.90;;;;;;5039191;28;20037;-74
2023/11/21 03:02:43;;;;;;;27.60;18.95;;;5.30;99.90;;;;;;5034728;28;20221;-73
2023/11/21 03:05:11;;;;;;;29.52;18.80;;;5.40;99.90;;;;;;5032987;28;20042;-73
2023/11/21 03:07:39;;;;;;;29.40;18.90;;;5.40;99.90;;;;;;5037125;28;20442;-75
2023/11/21 03:10:10;;;;;;;27.08;18.17;;;5.30;99.90;;;;;;5033209;28;20628;-73
2023/11/21 03:12:40;;;;;;;29.52;18.88;;;5.10;99.90;;;;;;5033907;28;20037;-73
2023/11/21 03:15:11;;;;;;;26.40;18.23;;;5.20;99.90;;;;;;5031119;28;20037;-75
2023/11/21 03:17:39;;;;;;;28.08;18.20;;;5.10;99.90;;;;;;5037223;28;20434;-73
2023/11/21 03:20:10;;;;;;;28.45;18.23;;;5.10;99.90;;;;;;5029498;28;20033;-74
2023/11/21 03:22:38;;;;;;;28.33;18.42;;;5.10;99.90;;;;;;5014487;28;20044;-73
2023/11/21 03:25:10;;;;;;;31.13;18.88;;;5.10;99.90;;;;;;5036450;28;20041;-72
2023/11/21 03:27:38;;;;;;;32.03;19.90;;;4.90;99.90;;;;;;5035212;28;20045;-74
2023/11/21 03:30:09;;;;;;;32.00;19.13;;;4.80;99.90;;;;;;5011949;28;20038;-72
2023/11/21 03:32:36;;;;;;;28.10;20.48;;;4.90;99.90;;;;;;5030220;28;20052;-72
2023/11/21 03:35:05;;;;;;;32.78;19.80;;;4.90;99.90;;;;;;5030467;28;20389;-74
2023/11/21 03:37:33;;;;;;;25.80;18.95;;;4.80;99.90;;;;;;5033662;28;20049;-72
2023/11/21 03:40:01;;;;;;;29.35;19.83;;;4.90;99.90;;;;;;5036099;28;20033;-73
2023/11/21 03:42:28;;;;;;;33.85;19.58;;;4.90;99.90;;;;;;5032612;28;20048;-72
2023/11/21 03:44:55;;;;;;;22.13;17.13;;;5.00;99.90;;;;;;5037050;28;20391;-72
2023/11/21 03:47:23;;;;;;;30.80;18.45;;;5.10;99.90;;;;;;5000658;28;20480;-72
2023/11/21 03:49:50;;;;;;;27.70;17.13;;;5.10;99.90;;;;;;5036968;28;20404;-72
2023/11/21 03:52:17;;;;;;;27.08;17.00;;;5.10;99.90;;;;;;5037112;28;20560;-74
2023/11/21 03:54:45;;;;;;;31.67;17.58;;;5.10;99.90;;;;;;5036577;28;20136;-73
2023/11/21 03:57:12;;;;;;;27.13;17.05;;;5.10;99.90;;;;;;5005958;28;20120;-72
2023/11/21 03:59:41;;;;;;;26.50;17.25;;;5.10;99.90;;;;;;5030844;28;20048;-73
2023/11/21 04:02:08;;;;;;;24.23;17.77;;;5.10;99.90;;;;;;5034541;28;20407;-72
2023/11/21 04:04:36;;;;;;;31.45;17.40;;;5.10;99.90;;;;;;5011622;28;20041;-72
2023/11/21 04:07:04;;;;;;;25.67;17.20;;;5.20;99.90;;;;;;5031948;28;20044;-72
2023/11/21 04:09:31;;;;;;;28.35;18.40;;;5.10;99.90;;;;;;5011529;28;20034;-73
2023/11/21 04:11:59;;;;;;;30.63;18.58;;;4.70;99.90;;;;;;5032947;28;20473;-74
2023/11/21 04:14:26;;;;;;;27.25;18.45;;;4.30;99.90;;;;;;5035424;28;20504;-74
2023/11/21 04:16:54;;;;;;;28.65;18.33;;;4.30;99.90;;;;;;5025874;28;20049;-74
2023/11/21 04:19:21;;;;;;;27.05;18.63;;;4.50;99.90;;;;;;5033931;28;20115;-72
2023/11/21 04:21:49;;;;;;;27.92;18.73;;;4.80;99.90;;;;;;5008673;28;20034;-72
2023/11/21 04:24:16;;;;;;;30.13;18.50;;;4.80;99.90;;;;;;5036433;28;20457;-71
2023/11/21 04:26:44;;;;;;;28.25;18.55;;;4.80;99.90;;;;;;5032093;28;20392;-72
2023/11/21 04:29:12;;;;;;;25.90;17.48;;;4.80;99.90;;;;;;5034781;28;20099;-72
2023/11/21 04:31:39;;;;;;;27.52;18.20;;;4.70;99.90;;;;;;5032633;28;20084;-72
2023/11/21 04:34:06;;;;;;;27.02;18.00;;;4.60;99.90;;;;;;5041486;28;20037;-73
2023/11/21 04:36:34;;;;;;;26.50;17.80;;;4.50;99.90;;;;;;5029399;28;20061;-73
2023/11/21 04:39:02;;;;;;;30.10;18.60;;;4.60;99.90;;;;;;5037022;28;20040;-75
2023/11/21 04:41:31;;;;;;;27.73;17.83;;;4.70;99.90;;;;;;5042165;28;20068;-72
2023/11/21 04:44:00;;;;;;;26.40;18.42;;;4.70;99.90;;;;;;5030037;28;20463;-72
2023/11/21 04:46:28;;;;;;;26.85;17.38;;;4.60;99.90;;;;;;5038045;28;20047;-72
2023/11/21 04:48:56;;;;;;;25.35;18.85;;;4.60;99.90;;;;;;5032624;28;20037;-72
2023/11/21 04:51:23;;;;;;;28.17;18.98;;;4.70;99.90;;;;;;5035570;28;20096;-74
2023/11/21 04:53:50;;;;;;;28.73;19.25;;;4.40;99.90;;;;;;5038681;28;20087;-74
2023/11/21 04:56:18;;;;;;;25.95;19.00;;;4.50;99.90;;;;;;5031440;28;20115;-73
2023/11/21 04:58:45;;;;;;;29.92;18.67;;;4.70;99.90;;;;;;5034297;28;20503;-73
2023/11/21 05:01:13;;;;;;;23.15;17.33;;;4.80;99.90;;;;;;5034509;28;20131;-72
2023/11/21 05:03:41;;;;;;;27.17;17.45;;;4.70;99.90;;;;;;5034968;28;20107;-72
2023/11/21 05:06:11;;;;;;;27.98;18.63;;;4.70;99.90;;;;;;5013629;28;20120;-73
2023/11/21 05:08:39;;;;;;;32.15;19.35;;;4.70;99.90;;;;;;5036788;28;20447;-72
2023/11/21 05:11:10;;;;;;;25.65;17.83;;;4.70;99.90;;;;;;5038786;28;20117;-74
2023/11/21 05:13:38;;;;;;;30.13;18.15;;;4.60;99.90;;;;;;5036860;28;20049;-75
2023/11/21 05:16:07;;;;;;;28.80;19.05;;;4.60;99.90;;;;;;5031507;28;20072;-76
2023/11/21 05:18:34;;;;;;;30.17;18.73;;;4.60;99.90;;;;;;5027015;28;20034;-73
2023/11/21 05:21:02;;;;;;;25.92;18.25;;;4.60;99.90;;;;;;5035832;28;20056;-73
2023/11/21 05:23:29;;;;;;;27.95;18.42;;;4.60;99.90;;;;;;5028699;28;20069;-72
2023/11/21 05:25:57;;;;;;;27.48;18.15;;;4.60;99.90;;;;;;5037562;28;20045;-73
2023/11/21 05:28:24;;;;;;;27.90;18.15;;;4.50;99.90;;;;;;5033141;28;20048;-72
2023/11/21 05:30:51;;;;;;;26.42;17.38;;;4.50;99.90;;;;;;5032846;28;20046;-73
2023/11/21 05:33:36;;;;;;;24.55;17.52;;;4.40;99.90;;;;;;5033099;28;20033;-74
2023/11/21 05:36:04;;;;;;;27.80;17.83;;;4.40;99.90;;;;;;5041027;28;20408;-72
2023/11/21 05:38:31;;;;;;;27.25;18.08;;;4.30;99.90;;;;;;5030206;28;20087;-74
2023/11/21 05:40:59;;;;;;;26.83;19.23;;;4.30;99.90;;;;;;5010863;28;20749;-73
2023/11/21 05:43:27;;;;;;;25.55;18.55;;;4.20;99.90;;;;;;5014942;28;20635;-72
2023/11/21 05:45:54;;;;;;;25.83;18.45;;;4.30;99.90;;;;;;5027807;28;20041;-74
2023/11/21 05:48:22;;;;;;;27.30;19.23;;;4.40;99.90;;;;;;5032403;28;20091;-72
2023/11/21 05:50:50;;;;;;;32.55;18.77;;;4.50;99.90;;;;;;5038718;28;20049;-74
2023/11/21 05:53:17;;;;;;;49.10;29.02;;;4.50;99.90;;;;;;5033506;28;20116;-73
2023/11/21 05:55:44;;;;;;;28.77;19.70;;;4.60;99.90;;;;;;5035089;28;20416;-74
2023/11/21 05:58:13;;;;;;;30.35;18.92;;;4.90;99.90;;;;;;5029205;28;20550;-75
2023/11/21 06:00:41;;;;;;;28.25;18.83;;;4.80;99.90;;;;;;5029796;28;20119;-73
2023/11/21 06:03:08;;;;;;;26.08;18.05;;;4.10;99.90;;;;;;5039984;28;20068;-72
2023/11/21 06:05:36;;;;;;;26.15;17.60;;;4.40;99.90;;;;;;5034779;28;20034;-74
2023/11/21 06:08:03;;;;;;;28.50;18.38;;;4.60;99.90;;;;;;5006950;28;20041;-72
2023/11/21 06:10:31;;;;;;;33.42;19.98;;;4.60;99.90;;;;;;5037585;28;20095;-76
2023/11/21 06:12:58;;;;;;;29.23;19.92;;;4.40;99.90;;;;;;5024863;28;20033;-73
2023/11/21 06:15:30;;;;;;;27.95;19.52;;;4.40;99.90;;;;;;5026911;28;20115;-73
2023/11/21 06:17:58;;;;;;;33.70;23.30;;;4.30;99.90;;;;;;5035524;28;20032;-73
2023/11/21 06:20:26;;;;;;;41.47;25.70;;;4.80;99.90;;;;;;5028154;28;20414;-73
2023/11/21 06:22:53;;;;;;;56.42;31.92;;;5.10;99.90;;;;;;5031510;28;20461;-73
2023/11/21 06:25:21;;;;;;;411.45;196.98;;;5.20;99.90;;;;;;5034217;28;20041;-73
2023/11/21 06:27:50;;;;;;;54.65;37.22;;;5.50;99.90;;;;;;5029361;28;20423;-72
2023/11/21 06:30:19;;;;;;;32.35;24.23;;;5.60;99.90;;;;;;5028935;28;20503;-72
2023/11/21 06:32:49;;;;;;;29.52;20.67;;;5.60;99.90;;;;;;5041719;28;20575;-73
2023/11/21 06:35:17;;;;;;;26.67;19.48;;;5.70;99.90;;;;;;5029552;28;20041;-73
2023/11/21 06:37:47;;;;;;;30.63;19.92;;;5.50;99.90;;;;;;5029795;28;20037;-75
2023/11/21 06:40:19;;;;;;;33.53;20.13;;;5.70;99.90;;;;;;5015538;28;20497;-77
2023/11/21 06:42:48;;;;;;;32.28;20.98;;;5.90;99.90;;;;;;5029861;28;20041;-77
2023/11/21 06:45:26;;;;;;;34.03;20.98;;;5.90;99.90;;;;;;5035036;28;20045;-76
2023/11/21 06:47:53;;;;;;;62.00;33.38;;;5.60;99.90;;;;;;5036668;28;20087;-74
2023/11/21 06:50:21;;;;;;;57.75;35.65;;;6.00;99.90;;;;;;5034609;28;20044;-76
2023/11/21 06:52:48;;;;;;;37.65;25.75;;;6.30;99.90;;;;;;5030554;28;20038;-75
2023/11/21 06:55:16;;;;;;;39.20;25.23;;;6.70;99.90;;;;;;5032963;28;20497;-71
2023/11/21 06:57:44;;;;;;;40.92;24.95;;;7.00;99.90;;;;;;5039352;28;20543;-76
2023/11/21 07:00:13;;;;;;;36.97;23.52;;;7.10;99.90;;;;;;5026380;28;20045;-76
2023/11/21 07:02:40;;;;;;;35.35;23.58;;;7.10;99.90;;;;;;5033346;28;20042;-75
2023/11/21 07:05:08;;;;;;;41.28;21.35;;;6.90;99.90;;;;;;5035501;28;20048;-75
2023/11/21 07:07:36;;;;;;;36.33;23.27;;;6.90;99.90;;;;;;5022818;28;20405;-73
2023/11/21 07:10:05;;;;;;;33.85;23.17;;;6.90;99.90;;;;;;5035718;28;20087;-75
2023/11/21 07:12:33;;;;;;;37.70;23.35;;;7.20;99.90;;;;;;5033276;28;20405;-74
2023/11/21 07:15:00;;;;;;;34.22;23.15;;;7.40;99.90;;;;;;5031192;28;20034;-74
2023/11/21 07:17:28;;;;;;;37.95;23.02;;;7.50;99.90;;;;;;5032808;28;20462;-73
2023/11/21 07:19:55;;;;;;;37.15;24.13;;;7.50;99.90;;;;;;5028915;28;20113;-75
2023/11/21 07:22:22;;;;;;;32.60;23.77;;;7.60;99.90;;;;;;5033227;28;20048;-73
2023/11/21 07:24:53;;;;;;;34.75;24.13;;;7.60;99.90;;;;;;5008760;28;20402;-74
2023/11/21 07:27:20;;;;;;;44.95;29.75;;;7.60;99.90;;;;;;5013582;28;20477;-75
2023/11/21 07:29:48;;;;;;;51.60;32.67;;;7.40;99.90;;;;;;5027608;28;20049;-73
2023/11/21 07:32:15;;;;;;;48.38;30.52;;;7.10;99.90;;;;;;5030246;28;20057;-73
2023/11/21 07:34:43;;;;;;;42.80;26.60;;;7.10;99.90;;;;;;5027734;28;20041;-72
2023/11/21 07:37:10;;;;;;;47.20;27.27;;;7.00;99.90;;;;;;5024962;28;20037;-75
2023/11/21 07:39:41;;;;;;;41.88;27.98;;;6.80;99.90;;;;;;5032725;28;20464;-74
2023/11/21 07:42:10;;;;;;;46.72;27.73;;;6.70;99.90;;;;;;5024210;28;20165;-75
2023/11/21 07:44:38;;;;;;;44.63;27.25;;;6.70;99.90;;;;;;5029171;28;20045;-74
2023/11/21 07:47:05;;;;;;;42.00;27.77;;;6.80;99.90;;;;;;5030047;28;20045;-73
2023/11/21 07:49:33;;;;;;;43.40;27.10;;;6.90;99.90;;;;;;5028232;28;20048;-72
2023/11/21 07:52:00;;;;;;;36.50;27.02;;;7.00;99.90;;;;;;5017709;28;20057;-74
2023/11/21 07:54:27;;;;;;;44.38;27.20;;;7.30;99.90;;;;;;5029276;28;20226;-72
2023/11/21 07:56:55;;;;;;;42.72;26.77;;;7.30;99.90;;;;;;5010189;28;20033;-74
2023/11/21 07:59:22;;;;;;;41.30;26.58;;;7.10;99.90;;;;;;5027048;28;20112;-74
2023/11/21 08:01:49;;;;;;;39.88;26.20;;;6.90;99.90;;;;;;5036933;28;20041;-72
2023/11/21 08:04:17;;;;;;;47.33;27.58;;;6.90;99.90;;;;;;5037520;28;20041;-73
2023/11/21 08:06:44;;;;;;;39.30;25.08;;;6.60;99.90;;;;;;5032644;28;20037;-74
2023/11/21 08:09:12;;;;;;;36.60;26.13;;;6.70;99.90;;;;;;5038721;28;20535;-73
2023/11/21 08:11:39;;;;;;;38.65;26.85;;;7.00;99.90;;;;;;5035294;28;20396;-73
2023/11/21 08:14:07;;;;;;;41.00;25.83;;;7.10;99.90;;;;;;5033147;28;20038;-75
2023/11/21 08:16:34;;;;;;;40.53;25.95;;;6.90;99.90;;;;;;5042237;28;20481;-73
2023/11/21 08:19:02;;;;;;;37.58;24.15;;;6.90;99.90;;;;;;5040938;28;20204;-74
2023/11/21 08:21:29;;;;;;;35.28;25.20;;;6.90;99.90;;;;;;5040724;28;20154;-75
2023/11/21 08:23:57;;;;;;;42.33;25.25;;;6.90;99.90;;;;;;5040541;28;20059;-75
2023/11/21 08:26:24;;;;;;;45.92;23.95;;;7.00;99.90;;;;;;5037540;28;20440;-74
2023/11/21 08:28:52;;;;;;;40.58;24.77;;;7.10;99.90;;;;;;5038728;28;20397;-73
2023/11/21 08:31:26;;;;;;;39.72;24.23;;;7.10;99.90;;;;;;5037779;28;20435;-74
2023/11/21 08:33:56;;;;;;;38.67;24.63;;;6.80;99.90;;;;;;5038488;28;20044;-72
2023/11/21 08:36:25;;;;;;;36.33;22.92;;;7.00;99.90;;;;;;5034856;28;20038;-74
2023/11/21 08:38:52;;;;;;;37.80;24.65;;;7.30;99.90;;;;;;5035296;28;20045;-74
2023/11/21 08:41:21;;;;;;;35.50;23.60;;;7.30;99.90;;;;;;5037093;28;20036;-73
2023/11/21 08:43:50;;;;;;;37.70;23.70;;;7.30;99.90;;;;;;5035913;28;20136;-73
2023/11/21 08:46:18;;;;;;;36.95;23.52;;;7.30;99.90;;;;;;5031973;28;20076;-74
2023/11/21 08:48:46;;;;;;;38.08;24.05;;;7.40;99.90;;;;;;5034032;28;20059;-73
2023/11/21 08:51:14;;;;;;;36.40;23.23;;;7.70;99.90;;;;;;5036213;28;20072;-73
2023/11/21 08:53:41;;;;;;;36.55;25.10;;;7.80;99.90;;;;;;5040369;28;20038;-73
2023/11/21 08:56:14;;;;;;;38.17;23.85;;;8.00;99.90;;;;;;5037200;28;20133;-74
2023/11/21 08:58:41;;;;;;;44.38;24.38;;;8.10;99.90;;;;;;5035763;28;20387;-73
2023/11/21 09:01:09;;;;;;;38.22;23.48;;;8.10;99.90;;;;;;5035470;28;20049;-74
2023/11/21 09:03:36;;;;;;;39.55;23.35;;;8.20;99.90;;;;;;5032301;28;20064;-73
2023/11/21 09:06:04;;;;;;;40.90;24.98;;;8.10;99.90;;;;;;5036630;28;20467;-72
2023/11/21 09:08:31;;;;;;;36.20;23.60;;;7.90;99.90;;;;;;5038568;28;20125;-72
2023/11/21 09:10:59;;;;;;;41.58;23.70;;;8.00;99.90;;;;;;5033013;28;20037;-73
2023/11/21 09:13:27;;;;;;;45.72;25.38;;;8.10;99.90;;;;;;5033254;28;20042;-75
2023/11/21 09:15:54;;;;;;;54.45;27.73;;;8.20;99.90;;;;;;5028687;28;20661;-73
2023/11/21 09:18:22;;;;;;;59.33;29.73;;;8.10;99.90;;;;;;5022664;28;20393;-76
2023/11/21 09:20:49;;;;;;;71.47;27.67;;;7.80;99.90;;;;;;5033862;28;20041;-71
2023/11/21 09:23:16;;;;;;;54.97;27.98;;;7.80;99.90;;;;;;5029507;28;20100;-72
2023/11/21 09:25:46;;;;;;;56.05;29.00;;;7.70;99.90;;;;;;5037352;28;20412;-73
2023/11/21 09:28:14;;;;;;;60.42;29.75;;;7.90;99.90;;;;;;5011308;28;20041;-74
2023/11/21 09:30:41;;;;;;;62.83;30.42;;;7.80;99.90;;;;;;5039004;28;20042;-73
2023/11/21 09:33:10;;;;;;;54.88;28.75;;;7.90;99.90;;;;;;5035511;28;20046;-74
2023/11/21 09:35:38;;;;;;;64.28;30.80;;;8.00;99.90;;;;;;5032211;28;20033;-74
2023/11/21 09:38:10;;;;;;;53.83;27.15;;;8.10;99.90;;;;;;5027824;28;20041;-72
2023/11/21 09:40:38;;;;;;;53.42;28.13;;;8.10;99.90;;;;;;5036910;28;20055;-73
2023/11/21 09:43:15;;;;;;;54.10;27.77;;;8.30;99.90;;;;;;5035993;28;20041;-72
2023/11/21 09:45:47;;;;;;;64.95;32.00;;;8.40;99.90;;;;;;5037995;28;20037;-73
2023/11/21 09:48:16;;;;;;;62.72;30.77;;;8.40;99.90;;;;;;5008221;28;20140;-72
2023/11/21 09:50:44;;;;;;;65.00;31.75;;;8.60;99.90;;;;;;5038622;28;20128;-72
2023/11/21 09:53:17;;;;;;;71.57;32.60;;;8.80;99.90;;;;;;5027665;28;20041;-71
2023/11/21 09:55:47;;;;;;;55.53;30.77;;;9.00;99.90;;;;;;5026919;28;20639;-73
2023/11/21 09:58:15;;;;;;;56.25;31.85;;;9.20;99.90;;;;;;5037222;28;20048;-71
2023/11/21 10:00:44;;;;;;;66.90;32.50;;;9.30;99.90;;;;;;5029480;28;20037;-72
2023/11/21 10:03:13;;;;;;;65.10;33.25;;;9.60;99.90;;;;;;5026952;28;20037;-74
2023/11/21 10:05:42;;;;;;;68.93;31.30;;;9.80;99.90;;;;;;5013739;28;20053;-71
2023/11/21 10:08:12;;;;;;;66.22;32.22;;;9.90;99.90;;;;;;5026741;28;20042;-72
2023/11/21 10:10:45;;;;;;;69.45;31.73;;;10.00;99.90;;;;;;5017155;28;20499;-69
2023/11/21 10:13:16;;;;;;;60.35;31.40;;;10.00;99.90;;;;;;5025028;28;20049;-74
2023/11/21 10:15:48;;;;;;;65.22;32.75;;;10.10;99.90;;;;;;5026234;28;20037;-74
2023/11/21 10:18:16;;;;;;;63.88;32.13;;;10.10;99.90;;;;;;5032574;28;20373;-74
2023/11/21 10:20:46;;;;;;;64.63;31.95;;;9.90;99.90;;;;;;5025094;28;20052;-71
2023/11/21 10:23:15;;;;;;;61.40;30.95;;;9.90;99.90;;;;;;5030401;28;20673;-73
2023/11/21 10:25:43;;;;;;;66.07;33.25;;;10.10;99.70;;;;;;5030839;28;20444;-74
2023/11/21 10:28:10;;;;;;;66.55;34.17;;;9.70;99.50;;;;;;5032929;28;20095;-73
2023/11/21 10:30:38;;;;;;;76.05;36.00;;;9.30;99.90;;;;;;5032125;28;20140;-72
2023/11/21 10:33:11;;;;;;;78.55;37.03;;;9.40;99.90;;;;;;5031665;28;20037;-76
2023/11/21 10:35:42;;;;;;;108.32;44.17;;;9.30;99.90;;;;;;5031147;28;20033;-73
2023/11/21 10:38:10;;;;;;;79.28;39.47;;;9.00;99.90;;;;;;5036673;28;20485;-72
2023/11/21 10:40:44;;;;;;;103.38;38.83;;;9.30;99.90;;;;;;5029340;28;20564;-72
2023/11/21 10:43:20;;;;;;;86.93;40.70;;;9.50;99.90;;;;;;5024804;28;20038;-73
2023/11/21 10:45:48;;;;;;;80.75;36.83;;;9.80;99.90;;;;;;5033807;28;20393;-72
2023/11/21 10:48:16;;;;;;;84.10;37.85;;;10.00;99.70;;;;;;5026199;28;20038;-76
2023/11/21 10:50:46;;;;;;;84.72;38.53;;;9.80;99.80;;;;;;5028620;28;20042;-74
2023/11/21 10:53:14;;;;;;;78.57;36.35;;;9.70;99.90;;;;;;5031083;28;20041;-71
2023/11/21 10:55:44;;;;;;;75.30;34.55;;;10.00;99.90;;;;;;5022895;28;20049;-75
2023/11/21 10:58:14;;;;;;;73.63;35.15;;;10.10;99.40;;;;;;5027086;28;20174;-73
2023/11/21 11:00:44;;;;;;;69.80;33.87;;;10.00;99.40;;;;;;5022514;28;20113;-73
2023/11/21 11:03:14;;;;;;;66.82;32.65;;;10.00;99.60;;;;;;5028729;28;20136;-73
2023/11/21 11:05:51;;;;;;;64.28;31.50;;;10.10;99.50;;;;;;5036205;28;20044;-74
2023/11/21 11:08:26;;;;;;;80.25;33.90;;;10.20;99.40;;;;;;5026729;28;20033;-72
2023/11/21 11:10:55;;;;;;;76.00;35.40;;;10.20;99.30;;;;;;5036031;28;20040;-73
2023/11/21 11:13:23;;;;;;;68.35;35.17;;;10.10;99.20;;;;;;5029690;28;20081;-71
2023/11/21 11:16:03;;;;;;;74.72;34.53;;;10.10;99.30;;;;;;5035081;28;20364;-72
2023/11/21 11:18:31;;;;;;;68.45;32.90;;;10.30;99.20;;;;;;5034550;28;20069;-73
2023/11/21 11:21:25;;;;;;;87.07;40.03;;;10.30;99.50;;;;;;5029723;28;20045;-72
2023/11/21 11:23:52;;;;;;;87.05;36.53;;;10.30;99.50;;;;;;5029608;28;20083;-74
2023/11/21 11:26:44;;;;;;;77.78;36.10;;;10.40;99.20;;;;;;5029416;28;20060;-73
2023/11/21 11:29:34;;;;;;;83.13;36.65;;;10.40;99.10;;;;;;5020830;28;20030;-72
2023/11/21 11:32:33;;;;;;;72.53;32.90;;;10.50;99.00;;;;;;5026286;28;20140;-72
2023/11/21 11:35:07;;;;;;;72.55;33.25;;;10.50;99.00;;;;;;5017429;28;20241;-73
2023/11/21 11:37:34;;;;;;;82.90;33.70;;;10.30;99.10;;;;;;5037290;28;20117;-74
2023/11/21 11:40:06;;;;;;;70.40;33.13;;;10.30;99.10;;;;;;5035672;28;20135;-72
2023/11/21 11:42:33;;;;;;;68.20;32.35;;;10.30;99.30;;;;;;5016649;28;20116;-71
2023/11/21 11:45:01;;;;;;;66.32;30.88;;;10.10;99.00;;;;;;5038309;28;20446;-77
2023/11/21 11:47:32;;;;;;;64.78;31.50;;;10.10;99.30;;;;;;5034393;28;20605;-72
2023/11/21 11:50:07;;;;;;;66.90;28.92;;;10.00;99.20;;;;;;5040788;28;20041;-75
2023/11/21 11:52:52;;;;;;;53.95;27.67;;;10.00;99.30;;;;;;5028932;28;20393;-72
2023/11/21 11:55:21;;;;;;;62.25;27.98;;;10.10;99.30;;;;;;5024484;28;20041;-77
2023/11/21 11:57:56;;;;;;;53.42;25.60;;;10.10;99.10;;;;;;5036535;28;20033;-76
2023/11/21 12:00:28;;;;;;;51.42;26.02;;;10.10;99.00;;;;;;5030238;28;20041;-73
2023/11/21 12:03:03;;;;;;;60.60;30.15;;;10.20;99.90;;;;;;5019243;28;20385;-77
2023/11/21 12:05:33;;;;;;;44.42;24.40;;;10.60;99.90;;;;;;5032745;28;20455;-73
2023/11/21 12:08:06;;;;;;;44.63;23.08;;;10.80;99.70;;;;;;5041966;28;20079;-71
2023/11/21 12:10:36;;;;;;;49.58;22.55;;;10.60;99.00;;;;;;5040964;28;20045;-72
2023/11/21 12:13:07;;;;;;;39.42;21.85;;;10.60;99.30;;;;;;5032626;28;20037;-74
2023/11/21 12:15:35;;;;;;;36.50;18.88;;;11.00;99.30;;;;;;5022558;28;20048;-74
2023/11/21 12:18:04;;;;;;;38.60;18.58;;;11.00;97.80;;;;;;5031416;28;20076;-72
2023/11/21 12:20:32;;;;;;;33.30;17.75;;;10.70;97.70;;;;;;5038099;28;20042;-74
2023/11/21 12:23:00;;;;;;;35.67;18.80;;;10.50;97.90;;;;;;5035018;28;20065;-73
2023/11/21 12:25:31;;;;;;;33.28;18.70;;;10.40;98.30;;;;;;5043465;28;20135;-74
2023/11/21 12:28:00;;;;;;;26.50;15.75;;;10.30;98.30;;;;;;5033246;28;20476;-72
2023/11/21 12:30:30;;;;;;;26.13;15.60;;;10.10;98.10;;;;;;5036582;28;20053;-73
2023/11/21 12:33:00;;;;;;;26.90;16.55;;;10.10;98.30;;;;;;5033503;28;20033;-72
2023/11/21 12:35:34;;;;;;;30.15;17.15;;;10.10;98.40;;;;;;5035983;28;20038;-72
2023/11/21 12:38:03;;;;;;;27.25;17.13;;;10.00;98.50;;;;;;5021339;28;20041;-75
2023/11/21 12:40:48;;;;;;;27.95;18.00;;;10.00;98.60;;;;;;5019792;28;20018;-75
2023/11/21 12:43:18;;;;;;;28.70;16.33;;;10.10;98.30;;;;;;5041152;28;20047;-72